createdAt,value
2022-10-06T00:01:53.281Z,4.13
2022-10-06T00:06:56.590Z,3.63
2022-10-06T00:11:59.962Z,3.22
2022-10-06T00:17:05.666Z,3.50
2022-10-06T00:22:08.952Z,3.67
2022-10-06T00:27:12.481Z,3.30
2022-10-06T00:32:17.111Z,3.67
2022-10-06T00:37:20.495Z,3.42
2022-10-06T00:42:25.679Z,3.58
2022-10-06T00:47:33.172Z,3.60
2022-10-06T00:52:37.077Z,3.45
2022-10-06T00:57:42.226Z,3.13
2022-10-06T01:02:51.863Z,3.33
2022-10-06T01:07:55.427Z,3.17
2022-10-06T01:12:58.820Z,3.00
2022-10-06T01:18:07.028Z,3.35
2022-10-06T01:23:12.009Z,2.97
2022-10-06T01:28:15.918Z,3.20
2022-10-06T01:33:19.733Z,3.28
2022-10-06T01:38:24.399Z,3.45
2022-10-06T01:43:28.981Z,9.45
2022-10-06T01:48:32.677Z,6.07
2022-10-06T01:53:37.624Z,6.05
2022-10-06T01:58:40.894Z,3.17
2022-10-06T02:03:44.172Z,3.13
2022-10-06T02:08:49.126Z,2.58
2022-10-06T02:13:52.419Z,3.05
2022-10-06T02:18:55.769Z,2.50
2022-10-06T02:24:00.414Z,2.60
2022-10-06T02:29:03.754Z,3.13
2022-10-06T02:34:07.068Z,3.40
2022-10-06T02:39:12.127Z,3.10
2022-10-06T02:44:16.101Z,3.25
2022-10-06T02:49:19.388Z,2.80
2022-10-06T02:54:24.484Z,3.47
2022-10-06T02:59:28.095Z,3.08
2022-10-06T03:04:31.409Z,2.83
2022-10-06T03:09:36.173Z,3.25
2022-10-06T03:14:39.903Z,2.38
2022-10-06T03:19:43.431Z,3.08
2022-10-06T03:24:48.073Z,3.28
2022-10-06T03:29:51.610Z,3.05
2022-10-06T03:34:55.205Z,2.72
2022-10-06T03:40:00.843Z,2.80
2022-10-06T03:45:04.415Z,3.00
2022-10-06T03:50:09.454Z,3.80
2022-10-06T03:55:14.104Z,3.30
2022-10-06T04:00:17.483Z,3.38
2022-10-06T04:05:20.979Z,3.40
2022-10-06T04:10:26.350Z,2.70
2022-10-06T04:15:29.611Z,3.60
2022-10-06T04:20:33.268Z,2.92
2022-10-06T04:25:37.932Z,3.38
2022-10-06T04:30:41.458Z,3.15
2022-10-06T04:35:44.732Z,2.67
2022-10-06T04:40:49.341Z,2.58
2022-10-06T04:46:09.517Z,3.30
2022-10-06T04:51:26.398Z,3.05
2022-10-06T04:56:32.625Z,3.40
2022-10-06T05:01:37.319Z,3.78
2022-10-06T05:06:42.391Z,3.05
2022-10-06T05:11:48.174Z,3.08
2022-10-06T05:16:51.640Z,3.00
2022-10-06T05:21:55.351Z,3.28
2022-10-06T05:27:02.181Z,2.60
2022-10-06T05:32:05.886Z,2.90
2022-10-06T05:37:09.430Z,3.13
2022-10-06T05:42:14.019Z,3.03
2022-10-06T05:47:17.590Z,2.83
2022-10-06T05:52:20.886Z,3.35
2022-10-06T05:57:25.770Z,3.55
2022-10-06T06:02:29.340Z,3.60
2022-10-06T06:07:32.720Z,3.47
2022-10-06T06:12:37.511Z,3.50
2022-10-06T06:17:40.764Z,2.83
2022-10-06T06:22:44.017Z,3.63
2022-10-06T06:27:48.696Z,3.63
2022-10-06T06:32:51.961Z,3.60
2022-10-06T06:37:55.323Z,3.58
2022-10-06T06:42:59.957Z,3.63
2022-10-06T06:48:04.240Z,4.72
2022-10-06T06:53:07.671Z,3.38
2022-10-06T06:58:12.738Z,3.80
2022-10-06T07:03:28.225Z,3.80
2022-10-06T07:08:43.753Z,4.82
2022-10-06T07:13:52.480Z,3.70
2022-10-06T07:19:13.097Z,3.13
2022-10-06T07:24:34.964Z,2.60
2022-10-06T07:29:39.826Z,3.75
2022-10-06T07:39:51.741Z,2.80
2022-10-06T07:45:14.022Z,2.90
2022-10-06T07:50:17.422Z,3.10
2022-10-06T07:55:20.745Z,2.65
2022-10-06T08:00:27.571Z,3.15
2022-10-06T08:05:32.380Z,3.10
2022-10-06T08:10:36.137Z,2.85
2022-10-06T08:15:40.765Z,2.85
2022-10-06T08:20:45.881Z,2.92
2022-10-06T08:25:51.900Z,2.65
2022-10-06T08:30:57.169Z,2.42
2022-10-06T08:36:04.260Z,2.30
2022-10-06T08:41:22.372Z,2.05
2022-10-06T08:46:33.772Z,2.40
2022-10-06T08:51:51.451Z,2.35
2022-10-06T08:57:03.673Z,2.13
2022-10-06T09:02:22.132Z,2.10
2022-10-06T09:07:33.383Z,1.90
2022-10-06T09:12:40.650Z,2.13
2022-10-06T09:17:50.289Z,2.75
2022-10-06T09:22:56.680Z,2.58
2022-10-06T09:28:03.336Z,2.08
2022-10-06T09:33:14.833Z,2.47
2022-10-06T09:38:18.795Z,2.38
2022-10-06T09:43:26.803Z,2.60
2022-10-06T09:48:31.655Z,2.42
2022-10-06T09:53:37.644Z,2.60
2022-10-06T09:58:41.174Z,2.35
2022-10-06T10:04:15.445Z,2.67
2022-10-06T10:09:27.031Z,2.50
2022-10-06T10:14:38.085Z,2.22
2022-10-06T10:19:46.727Z,2.22
2022-10-06T10:24:59.013Z,2.47
2022-10-06T10:30:09.424Z,2.83
2022-10-06T10:35:24.568Z,1.85
2022-10-06T10:40:35.643Z,1.45
2022-10-06T10:45:45.046Z,1.77
2022-10-06T10:50:59.113Z,1.77
2022-10-06T10:56:03.921Z,2.00
2022-10-06T11:01:18.764Z,1.10
2022-10-06T11:06:43.784Z,1.13
2022-10-06T11:11:57.148Z,0.90
2022-10-06T11:17:06.485Z,0.93
2022-10-06T11:22:20.153Z,1.02
2022-10-06T11:27:34.851Z,0.60
2022-10-06T11:32:48.385Z,0.90
2022-10-06T11:38:00.832Z,0.40
2022-10-06T11:43:10.240Z,0.93
2022-10-06T11:48:24.381Z,0.60
2022-10-06T11:53:41.935Z,1.02
2022-10-06T11:59:27.416Z,0.50
2022-10-06T12:04:31.272Z,0.80
2022-10-06T12:10:16.920Z,0.82
2022-10-06T12:21:06.318Z,1.00
2022-10-06T12:26:24.590Z,0.80
2022-10-06T12:31:46.478Z,1.15
2022-10-06T12:36:49.893Z,1.38
2022-10-06T12:42:02.667Z,1.00
2022-10-06T12:52:27.559Z,0.98
2022-10-06T12:57:33.514Z,0.77
2022-10-06T13:02:36.944Z,0.98
2022-10-06T13:07:59.292Z,0.98
2022-10-06T13:13:19.600Z,1.00
2022-10-06T13:18:24.390Z,1.00
2022-10-06T13:23:30.677Z,1.02
2022-10-06T13:28:49.282Z,1.13
2022-10-06T13:33:56.355Z,0.90
2022-10-06T13:39:00.215Z,0.68
2022-10-06T13:44:25.121Z,0.90
2022-10-06T13:49:33.861Z,0.63
2022-10-06T13:54:42.131Z,1.20
2022-10-06T13:59:46.852Z,1.00
2022-10-06T14:05:20.225Z,1.08
2022-10-06T14:10:29.155Z,0.77
2022-10-06T14:15:46.485Z,0.80
2022-10-06T14:20:51.170Z,0.95
2022-10-06T14:25:54.445Z,0.70
2022-10-06T14:30:59.178Z,1.00
2022-10-06T14:36:02.876Z,1.20
2022-10-06T14:41:06.412Z,0.73
2022-10-06T14:46:14.233Z,1.67
2022-10-06T14:51:18.522Z,0.85
2022-10-06T14:56:22.877Z,0.70
2022-10-06T15:01:28.792Z,1.10
2022-10-06T15:06:49.382Z,1.25
2022-10-06T15:11:54.036Z,1.35
2022-10-06T15:17:00.531Z,0.93
2022-10-06T15:22:04.656Z,0.85
2022-10-06T15:27:34.034Z,0.80
2022-10-06T15:32:38.716Z,1.17
2022-10-06T15:37:42.344Z,1.10
2022-10-06T15:42:50.158Z,0.98
2022-10-06T15:47:54.843Z,0.98
2022-10-06T15:52:58.109Z,1.15
2022-10-06T15:58:01.651Z,0.80
2022-10-06T16:03:22.744Z,1.42
2022-10-06T16:08:26.003Z,1.40
2022-10-06T16:13:29.617Z,1.35
2022-10-06T16:18:34.274Z,1.40
2022-10-06T16:23:37.554Z,1.33
2022-10-06T16:28:41.133Z,1.10
2022-10-06T16:33:46.159Z,1.23
2022-10-06T16:38:54.583Z,1.67
2022-10-06T16:44:00.377Z,1.50
2022-10-06T16:49:07.342Z,1.25
2022-10-06T16:54:12.636Z,1.27
2022-10-06T16:59:17.472Z,1.88
2022-10-06T17:04:23.499Z,3.75
2022-10-06T17:09:28.466Z,6.22
2022-10-06T17:14:34.572Z,8.77
2022-10-06T17:19:39.605Z,6.57
2022-10-06T17:24:43.125Z,20.90
2022-10-06T17:29:46.485Z,32.70
2022-10-06T17:34:55.305Z,20.50
2022-10-06T17:39:58.640Z,10.32
2022-10-06T17:45:02.297Z,9.02
2022-10-06T17:50:08.093Z,6.78
2022-10-06T17:55:11.622Z,5.60
2022-10-06T18:00:18.239Z,18.35
2022-10-06T18:05:23.006Z,8.57
2022-10-06T18:10:43.803Z,6.35
2022-10-06T18:15:50.727Z,6.53
2022-10-06T18:21:03.461Z,17.75
2022-10-06T18:26:06.977Z,9.80
2022-10-06T18:31:10.477Z,11.48
2022-10-06T18:36:16.313Z,8.43
2022-10-06T18:41:20.982Z,7.88
2022-10-06T18:46:41.907Z,8.82
2022-10-06T18:51:48.666Z,7.22
2022-10-06T18:56:52.612Z,7.43
2022-10-06T19:01:57.893Z,8.15
2022-10-06T19:07:03.053Z,8.60
2022-10-06T19:12:06.452Z,6.93
2022-10-06T19:17:13.182Z,7.32
2022-10-06T19:22:20.292Z,7.53
2022-10-06T19:27:25.572Z,8.68
2022-10-06T19:32:32.171Z,9.10
2022-10-06T19:37:37.139Z,11.50
2022-10-06T19:42:49.386Z,11.65
2022-10-06T19:47:53.567Z,9.70
2022-10-06T19:52:58.705Z,9.82
2022-10-06T19:58:02.333Z,10.90
2022-10-06T20:03:07.574Z,9.68
2022-10-06T20:08:12.222Z,8.95
2022-10-06T20:13:15.518Z,10.18
2022-10-06T20:18:19.119Z,8.38
2022-10-06T20:23:24.313Z,10.35
2022-10-06T20:28:28.702Z,7.95
2022-10-06T20:33:34.419Z,8.52
2022-10-06T20:38:56.453Z,9.38
2022-10-06T20:44:00.895Z,8.00
2022-10-06T20:49:07.141Z,8.45
2022-10-06T20:54:11.834Z,7.40
2022-10-06T20:59:15.251Z,7.65
2022-10-06T21:04:18.866Z,9.15
2022-10-06T21:09:24.459Z,7.40
2022-10-06T21:14:28.216Z,8.65
2022-10-06T21:19:31.566Z,7.38
2022-10-06T21:24:36.545Z,7.97
2022-10-06T21:29:40.039Z,8.02
2022-10-06T21:34:43.402Z,8.45
2022-10-06T21:39:48.036Z,8.77
2022-10-06T21:44:51.369Z,7.47
2022-10-06T21:49:54.839Z,7.82
2022-10-06T21:54:59.549Z,7.78
2022-10-06T22:00:03.087Z,8.43
2022-10-06T22:05:07.292Z,8.82
2022-10-06T22:10:12.081Z,8.35
2022-10-06T22:15:15.571Z,8.63
2022-10-06T22:20:18.896Z,8.73
2022-10-06T22:25:23.804Z,9.57
2022-10-06T22:30:27.165Z,9.18
2022-10-06T22:35:30.722Z,9.15
2022-10-06T22:40:35.496Z,13.50
2022-10-06T22:45:39.129Z,10.82
2022-10-06T22:50:42.449Z,10.18
2022-10-06T22:55:47.529Z,10.38
2022-10-06T23:00:51.035Z,9.23
2022-10-06T23:05:55.966Z,11.45
2022-10-06T23:11:06.682Z,10.55
2022-10-06T23:16:11.482Z,9.60
2022-10-06T23:21:19.379Z,11.38
2022-10-06T23:26:25.284Z,10.02
2022-10-06T23:31:29.507Z,10.43
2022-10-06T23:36:33.104Z,11.93
2022-10-06T23:41:37.770Z,11.23
2022-10-06T23:46:41.100Z,12.93
2022-10-06T23:51:44.702Z,13.13
2022-10-06T23:56:51.440Z,12.45
